createdAt,value
2022-11-27T00:01:33.117Z,24.25
2022-11-27T00:04:01.288Z,25.25
2022-11-27T00:06:30.293Z,31.50
2022-11-27T00:08:59.503Z,31.00
2022-11-27T00:11:31.770Z,32.00
2022-11-27T00:14:00.194Z,30.75
2022-11-27T00:16:28.840Z,31.25
2022-11-27T00:18:56.687Z,34.00
2022-11-27T00:21:27.317Z,31.25
2022-11-27T00:23:56.633Z,32.50
2022-11-27T00:26:24.940Z,33.00
2022-11-27T00:28:52.803Z,33.00
2022-11-27T00:31:27.764Z,33.50
2022-11-27T00:33:57.322Z,33.25
2022-11-27T00:36:25.298Z,31.75
2022-11-27T00:38:53.059Z,32.00
2022-11-27T00:41:23.172Z,33.50
2022-11-27T00:43:50.968Z,32.00
2022-11-27T00:46:24.018Z,32.50
2022-11-27T00:48:56.706Z,33.00
2022-11-27T00:51:26.895Z,32.00
2022-11-27T00:53:55.138Z,29.00
2022-11-27T00:56:28.667Z,31.50
2022-11-27T00:58:57.075Z,30.00
2022-11-27T01:01:33.183Z,30.75
2022-11-27T01:04:02.557Z,26.25
2022-11-27T01:06:30.529Z,30.25
2022-11-27T01:08:59.075Z,31.00
2022-11-27T01:11:31.823Z,31.00
2022-11-27T01:14:02.080Z,32.00
2022-11-27T01:16:31.769Z,31.50
2022-11-27T01:19:00.995Z,30.25
2022-11-27T01:21:32.532Z,27.75
2022-11-27T01:24:00.945Z,31.00
2022-11-27T01:26:28.818Z,31.75
2022-11-27T01:28:57.989Z,32.75
2022-11-27T01:31:28.214Z,31.25
2022-11-27T01:33:58.716Z,26.75
2022-11-27T01:36:26.579Z,32.00
2022-11-27T01:38:54.840Z,27.25
2022-11-27T01:41:26.261Z,30.25
2022-11-27T01:43:56.652Z,29.00
2022-11-27T01:46:38.654Z,27.00
2022-11-27T01:49:32.695Z,25.50
2022-11-27T01:52:05.339Z,26.50
2022-11-27T01:54:43.505Z,28.75
2022-11-27T01:57:16.892Z,27.00
2022-11-27T01:59:46.552Z,30.67
2022-11-27T02:02:13.775Z,30.50
2022-11-27T02:04:41.536Z,30.25
2022-11-27T02:07:08.827Z,30.25
2022-11-27T02:09:36.343Z,28.50
2022-11-27T02:12:26.095Z,28.75
2022-11-27T02:15:02.534Z,31.25
2022-11-27T02:18:05.221Z,31.50
2022-11-27T02:21:10.482Z,32.00
2022-11-27T02:23:56.337Z,32.00
2022-11-27T02:27:01.270Z,34.50
2022-11-27T02:29:33.911Z,32.50
2022-11-27T02:32:22.444Z,33.00
2022-11-27T02:34:59.118Z,32.25
2022-11-27T02:37:39.818Z,31.25
2022-11-27T02:40:14.634Z,34.75
2022-11-27T02:42:57.249Z,30.75
2022-11-27T02:45:32.043Z,32.00
2022-11-27T02:48:00.047Z,30.75
2022-11-27T02:50:30.974Z,32.00
2022-11-27T02:53:04.828Z,28.00
2022-11-27T02:55:35.047Z,26.25
2022-11-27T02:58:08.979Z,17.25
2022-11-27T03:00:38.426Z,26.75
2022-11-27T03:03:10.307Z,25.50
2022-11-27T03:05:43.069Z,25.75
2022-11-27T03:08:22.665Z,25.25
2022-11-27T03:11:03.350Z,27.00
2022-11-27T03:13:36.080Z,28.00
2022-11-27T03:16:15.247Z,24.00
2022-11-27T03:18:47.979Z,21.25
2022-11-27T03:21:15.044Z,20.75
2022-11-27T03:23:42.502Z,14.50
2022-11-27T03:26:09.675Z,22.50
2022-11-27T07:59:23.325Z,21.25
2022-11-27T08:01:51.466Z,16.00
2022-11-27T08:04:18.920Z,14.00
2022-11-27T08:06:51.882Z,16.50
2022-11-27T08:09:19.153Z,13.00
2022-11-27T08:11:47.006Z,9.50
2022-11-27T08:14:14.598Z,11.25
2022-11-27T14:02:13.504Z,23.00
2022-11-27T14:04:56.096Z,22.50
2022-11-27T14:07:35.303Z,22.25
2022-11-27T14:10:32.965Z,15.25
2022-11-27T14:13:08.409Z,25.75
2022-11-27T14:15:41.253Z,24.00
2022-11-27T14:18:14.669Z,24.25
2022-11-27T14:21:03.799Z,23.50
2022-11-27T14:23:50.081Z,25.25
2022-11-27T14:26:26.555Z,25.50
2022-11-27T14:28:58.510Z,26.00
2022-11-27T14:31:36.159Z,25.00
2022-11-27T14:34:16.106Z,23.75
2022-11-27T14:36:48.950Z,24.00
2022-11-27T14:39:37.192Z,23.00
2022-11-27T14:42:28.542Z,23.25
2022-11-27T14:45:08.000Z,24.25
2022-11-27T14:47:41.257Z,25.25
2022-11-27T14:50:14.457Z,23.25
2022-11-27T14:52:51.538Z,24.25
2022-11-27T14:55:22.233Z,24.75
2022-11-27T14:57:55.507Z,29.50
2022-11-27T15:00:32.814Z,25.50
2022-11-27T15:03:11.795Z,39.25
2022-11-27T15:05:44.076Z,40.50
2022-11-27T15:16:42.693Z,24.75
2022-11-27T15:19:39.319Z,23.75
2022-11-27T15:22:06.811Z,25.00
2022-11-27T15:24:37.312Z,26.50
2022-11-27T15:27:17.269Z,27.00
2022-11-27T15:30:02.957Z,25.25
2022-11-27T15:33:05.881Z,30.00
2022-11-27T15:38:47.157Z,28.00
2022-11-27T15:41:32.208Z,32.00
2022-11-27T15:44:03.619Z,30.50
2022-11-27T15:46:38.772Z,28.50
2022-11-27T15:49:18.845Z,32.00
2022-11-27T15:52:11.673Z,27.75
2022-11-27T15:54:39.527Z,30.00
2022-11-27T15:57:27.625Z,30.25
2022-11-27T16:06:11.647Z,24.75
2022-11-27T16:09:06.616Z,27.50
2022-11-27T16:11:45.999Z,26.00
2022-11-27T16:14:17.321Z,26.25
2022-11-27T16:17:17.073Z,30.00
2022-11-27T16:19:51.843Z,31.00
2022-11-27T16:22:27.098Z,31.00
2022-11-27T16:25:05.501Z,29.25
2022-11-27T16:27:38.349Z,32.75
2022-11-27T16:30:12.093Z,30.25
2022-11-27T16:32:43.965Z,30.50
2022-11-27T16:35:21.933Z,27.50
2022-11-27T16:37:50.511Z,29.50
2022-11-27T16:40:20.794Z,27.50
2022-11-27T16:42:52.306Z,29.75
2022-11-27T16:45:31.806Z,32.00
2022-11-27T16:48:01.464Z,30.50
2022-11-27T16:50:35.530Z,30.00
2022-11-27T16:53:31.705Z,27.33
2022-11-27T16:56:04.035Z,27.25
2022-11-27T16:58:38.005Z,27.25
2022-11-27T17:01:18.083Z,28.75
2022-11-27T17:04:03.111Z,26.00
2022-11-27T17:06:36.634Z,27.33
2022-11-27T17:09:08.339Z,27.25
2022-11-27T17:11:53.478Z,27.25
2022-11-27T17:14:23.270Z,28.25
2022-11-27T17:16:54.832Z,24.25
2022-11-27T17:19:30.361Z,20.75
2022-11-27T17:22:01.073Z,28.00
2022-11-27T17:24:49.353Z,27.00
2022-11-27T17:27:25.471Z,27.00
2022-11-27T17:29:55.096Z,31.00
2022-11-27T17:32:33.697Z,26.75
2022-11-27T17:35:10.025Z,28.50
2022-11-27T17:37:40.392Z,27.50
2022-11-27T17:40:16.273Z,27.50
2022-11-27T17:42:59.863Z,30.00
2022-11-27T17:45:42.018Z,29.25
2022-11-27T17:48:15.849Z,28.25
2022-11-27T17:50:43.082Z,18.00
2022-11-27T17:53:12.921Z,27.50
2022-11-27T17:55:40.053Z,30.75
2022-11-27T17:58:07.778Z,33.00
2022-11-27T18:00:36.773Z,32.75
2022-11-27T18:03:08.270Z,37.00
2022-11-27T18:05:39.128Z,35.50
2022-11-27T18:08:07.176Z,35.25
2022-11-27T18:10:37.246Z,33.25
2022-11-27T18:13:19.317Z,21.75
2022-11-27T18:15:50.604Z,28.75
2022-11-27T18:18:18.440Z,34.00
2022-11-27T18:20:52.231Z,36.75
2022-11-27T18:23:20.601Z,33.50
2022-11-27T18:25:49.089Z,37.00
2022-11-27T18:28:16.851Z,34.00
2022-11-27T18:30:44.129Z,37.00
2022-11-27T18:33:11.703Z,33.00
2022-11-27T18:35:42.776Z,37.25
2022-11-27T18:38:10.431Z,34.25
2022-11-27T18:40:41.519Z,35.00
2022-11-27T18:43:09.040Z,31.50
2022-11-27T18:45:36.559Z,34.75
2022-11-27T18:48:04.884Z,33.00
2022-11-27T18:50:32.025Z,31.00
2022-11-27T18:52:59.491Z,32.50
2022-11-27T18:55:26.579Z,32.50
2022-11-27T18:57:54.172Z,33.75
2022-11-27T19:00:24.821Z,38.50
2022-11-27T19:02:55.507Z,41.75
2022-11-27T19:05:24.972Z,36.25
2022-11-27T19:07:52.383Z,40.25
2022-11-27T19:10:19.550Z,38.25
2022-11-27T19:12:51.172Z,37.00
2022-11-27T19:15:18.452Z,37.00
2022-11-27T19:17:45.956Z,37.00
2022-11-27T19:20:13.631Z,37.75
2022-11-27T19:22:41.093Z,38.25
2022-11-27T19:25:08.717Z,36.75
2022-11-27T19:27:36.248Z,38.75
2022-11-27T19:30:04.078Z,37.50
2022-11-27T19:32:31.791Z,39.00
2022-11-27T19:35:01.891Z,39.00
2022-11-27T19:37:35.075Z,39.75
2022-11-27T19:40:02.173Z,40.75
2022-11-27T19:42:29.682Z,41.00
2022-11-27T19:44:56.872Z,35.50
2022-11-27T19:47:25.131Z,40.00
2022-11-27T19:49:52.976Z,40.00
2022-11-27T19:52:20.573Z,38.25
2022-11-27T19:54:49.010Z,36.00
2022-11-27T19:57:16.375Z,33.50
2022-11-27T19:59:43.697Z,35.75
2022-11-27T20:02:15.005Z,36.75
2022-11-27T20:04:42.297Z,34.00
2022-11-27T20:07:10.549Z,33.00
2022-11-27T20:09:37.812Z,35.25
2022-11-27T20:12:06.122Z,36.00
2022-11-27T20:14:33.347Z,31.25
2022-11-27T20:17:00.982Z,36.00
2022-11-27T20:19:28.142Z,33.50
2022-11-27T20:21:55.639Z,33.25
2022-11-27T20:24:25.630Z,34.00
2022-11-27T20:26:53.142Z,37.50
2022-11-27T20:29:20.407Z,36.50
2022-11-27T20:31:50.546Z,33.50
2022-11-27T20:34:21.152Z,34.00
2022-11-27T20:36:49.222Z,33.00
2022-11-27T20:39:21.390Z,33.00
2022-11-27T20:41:52.083Z,33.00
2022-11-27T20:44:19.498Z,33.00
2022-11-27T20:46:46.954Z,35.00
2022-11-27T20:49:14.215Z,26.00
2022-11-27T20:51:42.439Z,38.50
2022-11-27T20:54:11.546Z,38.00
2022-11-27T20:56:39.058Z,37.25
2022-11-27T20:59:08.044Z,34.25
2022-11-27T21:01:36.932Z,38.25
2022-11-27T21:04:09.937Z,35.00
2022-11-27T21:06:43.677Z,34.25
2022-11-27T21:09:12.719Z,38.00
2022-11-27T21:11:40.583Z,34.75
2022-11-27T21:14:10.926Z,38.00
2022-11-27T21:16:42.335Z,35.50
2022-11-27T21:19:35.794Z,37.25
2022-11-27T21:22:03.294Z,37.75
2022-11-27T21:24:30.540Z,36.75
2022-11-27T21:26:57.936Z,36.75
2022-11-27T21:29:27.959Z,37.00
2022-11-27T21:31:57.279Z,37.00
2022-11-27T21:34:25.516Z,40.75
2022-11-27T21:36:53.314Z,39.75
2022-11-27T21:39:21.185Z,39.00
2022-11-27T21:41:50.639Z,37.00
2022-11-27T21:44:18.252Z,36.00
2022-11-27T21:46:47.265Z,33.00
2022-11-27T21:49:16.059Z,35.75
2022-11-27T21:51:44.025Z,35.25
2022-11-27T21:54:14.990Z,36.75
2022-11-27T21:56:42.579Z,35.00
2022-11-27T21:59:12.937Z,28.50
2022-11-27T22:01:40.718Z,34.50
2022-11-27T22:04:08.007Z,34.25
2022-11-27T22:06:38.456Z,35.00
2022-11-27T22:09:10.493Z,33.75
2022-11-27T22:11:40.965Z,35.75
2022-11-27T22:14:09.018Z,32.25
2022-11-27T22:16:44.438Z,34.25
2022-11-27T22:19:14.590Z,36.00
2022-11-27T22:21:44.584Z,34.00
2022-11-27T22:24:16.867Z,34.25
2022-11-27T22:26:48.859Z,32.75
2022-11-27T22:29:16.491Z,35.50
2022-11-27T22:31:43.945Z,34.00
2022-11-27T22:34:11.228Z,33.50
2022-11-27T22:36:39.125Z,27.50
2022-11-27T22:39:08.817Z,34.75
2022-11-27T22:41:38.075Z,34.00
2022-11-27T22:44:09.983Z,37.25
2022-11-27T22:46:40.365Z,33.50
2022-11-27T22:49:07.748Z,35.00
2022-11-27T22:51:37.474Z,32.25
2022-11-27T22:54:07.192Z,33.00
2022-11-27T22:56:34.768Z,35.00
2022-11-27T23:01:54.553Z,33.00
2022-11-27T23:04:21.718Z,36.25
2022-11-27T23:06:49.306Z,37.00
2022-11-27T23:09:20.833Z,37.50
2022-11-27T23:11:49.584Z,35.75
2022-11-27T23:14:17.025Z,37.00
2022-11-27T23:16:44.607Z,0.00
2022-11-27T23:19:12.609Z,36.75
2022-11-27T23:21:40.249Z,35.00
2022-11-27T23:24:10.063Z,33.75
2022-11-27T23:26:37.639Z,36.50
2022-11-27T23:29:05.051Z,33.25
2022-11-27T23:31:35.559Z,32.50
2022-11-27T23:34:07.670Z,31.75
2022-11-27T23:36:36.522Z,35.25
2022-11-27T23:39:06.584Z,33.50
2022-11-27T23:41:34.394Z,33.50
2022-11-27T23:44:02.286Z,33.33
2022-11-27T23:46:30.364Z,32.00
2022-11-27T23:49:00.052Z,33.00
2022-11-27T23:51:30.570Z,34.25
2022-11-27T23:53:58.352Z,33.00
2022-11-27T23:56:31.964Z,32.50
2022-11-27T23:59:00.933Z,33.33
